createdAt,value
2017-11-03T00:05:56.946Z,1009.98
2017-11-03T00:10:52.922Z,1009.99
2017-11-03T00:15:48.590Z,1009.98
2017-11-03T00:20:45.497Z,1009.93
2017-11-03T00:25:42.083Z,1009.96
2017-11-03T00:30:38.056Z,1009.98
2017-11-03T00:35:34.893Z,1009.91
2017-11-03T00:40:31.480Z,1010.00
2017-11-03T00:45:26.626Z,1009.94
2017-11-03T00:50:22.574Z,1009.94
2017-11-03T00:55:19.306Z,1009.92
2017-11-03T01:00:17.292Z,1010.03
2017-11-03T01:05:13.067Z,1010.04
2017-11-03T01:10:08.636Z,1010.03
2017-11-03T01:15:05.529Z,1010.05
2017-11-03T01:20:01.051Z,1010.02
2017-11-03T01:24:56.868Z,1009.97
2017-11-03T01:29:52.732Z,1009.95
2017-11-03T01:34:48.964Z,1009.95
2017-11-03T01:39:44.692Z,1009.99
2017-11-03T01:44:40.753Z,1009.93
2017-11-03T01:49:36.921Z,1009.92
2017-11-03T01:54:32.623Z,1010.01
2017-11-03T01:59:28.154Z,1009.97
2017-11-03T02:04:24.910Z,1009.96
2017-11-03T02:09:20.457Z,1009.95
2017-11-03T02:14:16.212Z,1009.96
2017-11-03T02:19:13.100Z,1009.99
2017-11-03T02:24:08.665Z,1010.03
2017-11-03T02:29:04.878Z,1009.96
2017-11-03T02:34:00.673Z,1009.99
2017-11-03T02:38:56.450Z,1009.98
2017-11-03T02:43:53.237Z,1010.05
2017-11-03T02:48:49.081Z,1010.00
2017-11-03T02:53:45.942Z,1010.05
2017-11-03T02:58:41.316Z,1010.03
2017-11-03T03:03:36.955Z,1010.12
2017-11-03T03:08:32.708Z,1010.10
2017-11-03T03:13:28.444Z,1010.09
2017-11-03T03:18:25.136Z,1010.11
2017-11-03T03:23:21.643Z,1010.09
2017-11-03T03:28:17.023Z,1010.07
2017-11-03T03:33:12.599Z,1010.08
2017-11-03T03:38:08.294Z,1010.03
2017-11-03T03:43:04.379Z,1010.19
2017-11-03T03:48:00.214Z,1010.17
2017-11-03T03:52:55.924Z,1010.20
2017-11-03T03:57:52.967Z,1010.13
2017-11-03T04:02:49.303Z,1010.10
2017-11-03T04:07:44.761Z,1010.23
2017-11-03T04:12:40.499Z,1010.17
2017-11-03T04:17:37.347Z,1010.20
2017-11-03T04:22:34.736Z,1010.20
2017-11-03T04:27:32.218Z,1010.10
2017-11-03T04:32:28.370Z,1010.11
2017-11-03T04:37:24.101Z,1010.15
2017-11-03T04:42:20.262Z,1010.16
2017-11-03T04:47:17.904Z,1010.17
2017-11-03T04:52:14.342Z,1010.11
2017-11-03T04:57:10.226Z,1010.13
2017-11-03T05:02:05.852Z,1010.08
2017-11-03T05:07:02.771Z,1010.19
2017-11-03T05:11:58.971Z,1010.16
2017-11-03T05:16:55.229Z,1010.21
2017-11-03T05:21:50.853Z,1010.16
2017-11-03T05:26:46.352Z,1010.23
2017-11-03T05:31:43.573Z,1010.21
2017-11-03T05:36:40.339Z,1010.21
2017-11-03T05:41:36.809Z,1010.19
2017-11-03T05:46:33.170Z,1010.25
2017-11-03T05:51:28.776Z,1010.15
2017-11-03T05:56:24.694Z,1010.03
2017-11-03T06:01:21.888Z,1010.21
2017-11-03T06:06:17.481Z,1010.25
2017-11-03T06:11:14.223Z,1010.21
2017-11-03T06:16:09.765Z,1010.16
2017-11-03T06:21:05.676Z,1010.25
2017-11-03T06:26:01.507Z,1010.22
2017-11-03T06:30:57.441Z,1010.29
2017-11-03T06:35:53.176Z,1010.41
2017-11-03T06:40:49.097Z,1010.36
2017-11-03T06:45:44.959Z,1010.41
2017-11-03T06:50:41.531Z,1010.55
2017-11-03T06:55:37.866Z,1010.49
2017-11-03T07:00:35.698Z,1010.52
2017-11-03T07:05:30.957Z,1010.67
2017-11-03T07:10:27.817Z,1010.56
2017-11-03T07:15:23.361Z,1010.54
2017-11-03T07:20:19.792Z,1010.48
2017-11-03T07:25:16.236Z,1010.64
2017-11-03T07:30:11.949Z,1010.60
2017-11-03T07:35:08.296Z,1010.63
2017-11-03T07:40:05.156Z,1010.63
2017-11-03T07:45:00.686Z,1010.72
2017-11-03T07:49:57.636Z,1010.67
2017-11-03T07:54:54.178Z,1010.69
2017-11-03T07:59:49.981Z,1010.59
2017-11-03T08:04:46.095Z,1010.68
2017-11-03T08:09:42.072Z,1010.72
2017-11-03T08:14:40.144Z,1010.70
2017-11-03T08:19:36.529Z,1010.69
2017-11-03T08:24:33.179Z,1010.64
2017-11-03T08:29:29.737Z,1010.60
2017-11-03T08:34:25.200Z,1010.71
2017-11-03T08:39:22.040Z,1010.68
2017-11-03T08:44:18.734Z,1010.63
2017-11-03T08:49:14.397Z,1010.56
2017-11-03T08:54:12.459Z,1010.57
2017-11-03T08:59:07.792Z,1010.52
2017-11-03T09:04:05.408Z,1010.54
2017-11-03T09:09:01.345Z,1010.67
2017-11-03T09:13:57.178Z,1010.61
2017-11-03T09:18:53.895Z,1010.67
2017-11-03T09:23:51.026Z,1010.59
2017-11-03T09:28:48.695Z,1010.55
2017-11-03T09:33:45.297Z,1010.55
2017-11-03T09:38:41.129Z,1010.56
2017-11-03T09:43:37.084Z,1010.45
2017-11-03T09:48:33.910Z,1010.52
2017-11-03T09:53:30.580Z,1010.60
2017-11-03T09:58:28.339Z,1010.47
2017-11-03T10:03:24.700Z,1010.54
2017-11-03T10:08:20.436Z,1010.41
2017-11-03T10:13:16.451Z,1010.52
2017-11-03T10:18:14.282Z,1010.48
2017-11-03T10:23:11.135Z,1010.44
2017-11-03T10:28:06.785Z,1010.46
2017-11-03T10:33:04.417Z,1010.40
2017-11-03T10:38:00.081Z,1010.34
2017-11-03T10:42:57.160Z,1010.36
2017-11-03T10:47:54.122Z,1010.28
2017-11-03T10:52:50.429Z,1010.28
2017-11-03T10:57:49.976Z,1010.26
2017-11-03T11:02:45.079Z,1010.23
2017-11-03T11:07:41.965Z,1010.19
2017-11-03T11:12:37.776Z,1010.24
2017-11-03T11:17:34.593Z,1010.14
2017-11-03T11:22:31.159Z,1010.10
2017-11-03T11:27:27.383Z,1010.06
2017-11-03T11:32:24.386Z,1010.10
2017-11-03T11:37:20.306Z,1010.04
2017-11-03T11:42:16.130Z,1010.06
2017-11-03T11:47:12.950Z,1009.94
2017-11-03T11:52:09.596Z,1009.74
2017-11-03T11:57:05.322Z,1009.73
2017-11-03T12:02:02.188Z,1009.67
2017-11-03T12:06:57.893Z,1009.56
2017-11-03T12:11:54.710Z,1009.64
2017-11-03T12:16:52.338Z,1009.69
2017-11-03T12:21:48.485Z,1009.69
2017-11-03T12:26:43.825Z,1009.71
2017-11-03T12:31:39.793Z,1009.90
2017-11-03T12:36:36.514Z,1009.67
2017-11-03T12:41:32.080Z,1009.74
2017-11-03T12:46:28.496Z,1009.54
2017-11-03T12:51:24.223Z,1009.48
2017-11-03T12:56:22.298Z,1009.49
2017-11-03T13:01:17.849Z,1009.38
2017-11-03T13:06:13.066Z,1009.39
2017-11-03T13:11:09.477Z,1009.31
2017-11-03T13:16:05.372Z,1009.32
2017-11-03T13:21:01.274Z,1009.21
2017-11-03T13:25:58.174Z,1009.09
2017-11-03T13:30:54.447Z,1009.05
2017-11-03T13:35:50.368Z,1009.06
2017-11-03T13:40:47.056Z,1009.16
2017-11-03T13:45:42.524Z,1009.10
2017-11-03T13:50:38.611Z,1009.09
2017-11-03T13:55:34.758Z,1009.08
2017-11-03T14:00:30.463Z,1008.98
2017-11-03T14:05:26.203Z,1009.02
2017-11-03T14:10:21.845Z,1009.01
2017-11-03T14:15:18.091Z,1008.90
2017-11-03T14:20:13.869Z,1008.93
2017-11-03T14:25:10.982Z,1008.98
2017-11-03T14:30:06.792Z,1008.81
2017-11-03T14:35:02.951Z,1008.72
2017-11-03T14:39:58.652Z,1008.70
2017-11-03T14:44:54.663Z,1008.72
2017-11-03T14:49:51.738Z,1008.69
2017-11-03T14:54:48.193Z,1008.70
2017-11-03T14:59:43.682Z,1008.69
2017-11-03T15:04:40.579Z,1008.67
2017-11-03T15:09:37.062Z,1008.55
2017-11-03T15:14:32.476Z,1008.57
2017-11-03T15:19:28.252Z,1008.54
2017-11-03T15:24:25.045Z,1008.57
2017-11-03T15:29:21.559Z,1008.57
2017-11-03T15:34:20.053Z,1008.46
2017-11-03T15:39:15.099Z,1008.51
2017-11-03T15:44:11.290Z,1008.56
2017-11-03T15:49:06.927Z,1008.53
2017-11-03T15:54:03.104Z,1008.44
2017-11-03T15:58:58.607Z,1008.44
2017-11-03T16:03:54.569Z,1008.50
2017-11-03T16:08:50.585Z,1008.51
2017-11-03T16:13:47.569Z,1008.50
2017-11-03T16:18:44.516Z,1008.42
2017-11-03T16:23:40.610Z,1008.51
2017-11-03T16:28:36.509Z,1008.41
2017-11-03T16:33:33.494Z,1008.34
2017-11-03T16:38:28.914Z,1008.31
2017-11-03T16:43:26.030Z,1008.29
2017-11-03T16:48:22.526Z,1008.32
2017-11-03T16:53:18.357Z,1008.34
2017-11-03T16:58:16.339Z,1008.33
2017-11-03T17:03:11.547Z,1008.41
2017-11-03T17:08:07.277Z,1008.40
2017-11-03T17:13:03.017Z,1008.41
2017-11-03T17:18:00.717Z,1008.37
2017-11-03T17:22:56.549Z,1008.35
2017-11-03T17:27:52.150Z,1008.23
2017-11-03T17:32:47.740Z,1008.24
2017-11-03T17:37:43.882Z,1008.17
2017-11-03T17:42:40.947Z,1008.14
2017-11-03T17:47:36.440Z,1008.24
2017-11-03T17:52:33.412Z,1008.17
2017-11-03T17:57:28.922Z,1008.16
2017-11-03T18:02:25.242Z,1008.04
2017-11-03T18:07:21.896Z,1008.17
2017-11-03T18:12:18.541Z,1008.10
2017-11-03T18:17:15.650Z,1008.02
2017-11-03T18:22:13.408Z,1008.03
2017-11-03T18:27:08.724Z,1008.01
2017-11-03T18:32:04.418Z,1007.97
2017-11-03T18:37:00.903Z,1008.02
2017-11-03T18:41:58.107Z,1008.01
2017-11-03T18:46:53.766Z,1007.97
2017-11-03T18:51:49.526Z,1007.83
2017-11-03T18:56:45.389Z,1007.85
2017-11-03T19:01:41.029Z,1007.85
2017-11-03T19:06:37.762Z,1007.78
2017-11-03T19:11:33.999Z,1007.85
2017-11-03T19:16:29.434Z,1007.85
2017-11-03T19:21:25.163Z,1007.81
2017-11-03T19:26:20.999Z,1007.87
2017-11-03T19:31:16.326Z,1007.83
2017-11-03T19:36:13.079Z,1007.74
2017-11-03T19:41:08.601Z,1007.87
2017-11-03T19:46:04.170Z,1007.76
2017-11-03T19:51:00.964Z,1007.65
2017-11-03T19:55:56.332Z,1007.66
2017-11-03T20:00:51.956Z,1007.66
2017-11-03T20:05:48.369Z,1007.65
2017-11-03T20:10:45.109Z,1007.72
2017-11-03T20:15:41.151Z,1007.72
2017-11-03T20:20:36.847Z,1007.63
2017-11-03T20:25:32.717Z,1007.67
2017-11-03T20:30:29.544Z,1007.62
2017-11-03T20:35:26.095Z,1007.50
2017-11-03T20:40:21.698Z,1007.60
2017-11-03T20:45:17.712Z,1007.61
2017-11-03T20:50:13.371Z,1007.52
2017-11-03T20:55:09.028Z,1007.57
2017-11-03T21:00:05.819Z,1007.50
2017-11-03T21:05:01.074Z,1007.54
2017-11-03T21:09:58.782Z,1007.50
2017-11-03T21:14:53.983Z,1007.43
2017-11-03T21:19:51.332Z,1007.38
2017-11-03T21:24:48.720Z,1007.33
2017-11-03T21:29:44.801Z,1007.31
2017-11-03T21:34:40.257Z,1007.24
2017-11-03T21:39:35.981Z,1007.32
2017-11-03T21:44:32.426Z,1007.12
2017-11-03T21:49:28.388Z,1007.18
2017-11-03T21:54:24.508Z,1007.16
2017-11-03T21:59:20.429Z,1007.08
2017-11-03T22:04:16.116Z,1007.12
2017-11-03T22:09:12.067Z,1006.98
2017-11-03T22:14:08.033Z,1007.02
2017-11-03T22:19:03.832Z,1007.06
2017-11-03T22:23:59.450Z,1006.91
2017-11-03T22:28:55.291Z,1007.00
2017-11-03T22:33:52.853Z,1006.96
2017-11-03T22:38:50.336Z,1006.89
2017-11-03T22:43:47.653Z,1006.95
2017-11-03T22:48:44.526Z,1006.91
2017-11-03T22:53:40.056Z,1006.80
2017-11-03T22:58:35.739Z,1006.79
2017-11-03T23:03:31.284Z,1006.79
2017-11-03T23:08:28.199Z,1006.67
2017-11-03T23:13:23.464Z,1006.78
2017-11-03T23:18:19.413Z,1006.81
2017-11-03T23:23:15.907Z,1006.68
2017-11-03T23:28:12.462Z,1006.70
2017-11-03T23:33:07.804Z,1006.67
2017-11-03T23:38:04.438Z,1006.68
2017-11-03T23:43:00.863Z,1006.67
2017-11-03T23:47:57.341Z,1006.62
2017-11-03T23:52:52.762Z,1006.58
2017-11-03T23:57:48.406Z,1006.56
